hwlogo.jpg (8581 bytes)
Home Your Weather Products Services Weather On Your Site Contact
HW Version Logo
Weather Info
Your Weather (Options)
Canadian Weather
International Weather
Enter your " Place, State", US Zip Code or ICAO:  
Forecast Information Radar Information
Estevan, Saskatchewan, Canada  Lat: 49.20N, Lon: 102.95W
ICAO Used: CYEN
Current Conditions
Updated: 7:44 AM CST MON FEB 19 2018
Sun & Moon Information
Mist
Mist
Temp: -29°C
Humidity: 75%
Wind Speed: W 5 MPH
Barometer: 1021 mb
Dewpoint: -32°C
Heat Index: -29°C
Wind Chill: -37°C
Civil Twilight: 7:23 AM CST Moon Phase:
Waxing Crescent Moon
Sunrise: 7:56 AM CST
Sunset: 6:15 PM CST
Civil Twilight: 6:47 PM CST
Forecast for Estevan, SK:
(Forecast based on TAF for )
0600 PM CST SUN FEB 18 2018
  
MORNING AFTERNOON EVENING OVERNIGHT
Mostly
Cloudy
Mostly
Cloudy
Mostly
Cloudy
Mostly
Cloudy
ZoneCast:
Dated: 0600 PM CST SUN FEB 18 2018
Morning...Turning mostly cloudy with winds from the northwest at 9 mph.

Afternoon...Mostly cloudy with winds from the northwest at 9 mph.

Evening...Mostly cloudy with winds from the northwest at 9 mph.

Overnight...Mostly cloudy with winds from the northwest at 9 mph.

Original Encoded TAF:
Dated: 0600 PM CST SUN FEB 18 2018
2018/02/19 13:21
TAF 
      AMD TAF 
      AMD CYEN 191319Z 1913/1924 30006KT P6SM VCFG FEW002 SCT025 BKN220 
      TEMPO 1913/1916 1/4SM IC FG BKN002 OVC120 
     FM191600 30008KT P6SM FEW020 BKN220 
      RMK NXT FCST BY 191800Z